Time,TemperatureF,DewpointF,PressureIn,WindDirection,WindDirectionDegrees,WindSpeedMPH,WindSpeedGustMPH,Humidity,HourlyPrecipIn,Conditions,Clouds,dailyrainin,SoftwareType,DateUTC
2013-03-11 00:02:00,65.0,59.0,30.09,NE,44,0.0,3.0,80,0.00,,,0.00,,2013-03-11 04:02:00,
2013-03-11 00:12:00,65.0,59.0,30.09,NE,44,0.0,3.0,80,0.00,,,0.00,,2013-03-11 04:12:00,
2013-03-11 00:22:00,65.0,59.0,30.09,ENE,71,0.0,3.0,80,0.00,,,0.00,,2013-03-11 04:22:00,
2013-03-11 00:32:00,64.0,58.0,30.09,ENE,71,0.0,3.0,81,0.00,,,0.00,,2013-03-11 04:32:00,
2013-03-11 00:42:00,64.0,58.0,30.09,ENE,71,0.0,3.0,81,0.00,,,0.00,,2013-03-11 04:42:00,
2013-03-11 00:53:00,63.0,57.0,30.08,ENE,71,0.0,1.0,82,0.00,,,0.00,,2013-03-11 04:53:00,
2013-03-11 01:03:00,62.0,57.0,30.08,ENE,71,0.0,1.0,83,0.00,,,0.00,,2013-03-11 05:03:00,
2013-03-11 01:12:00,62.0,57.0,30.08,ENE,71,0.0,1.0,83,0.00,,,0.00,,2013-03-11 05:12:00,
2013-03-11 01:22:00,62.0,57.0,30.07,ENE,71,0.0,1.0,84,0.00,,,0.00,,2013-03-11 05:22:00,
2013-03-11 01:32:00,60.0,56.0,30.07,ENE,71,0.0,0.0,86,0.00,,,0.00,,2013-03-11 05:32:00,
2013-03-11 01:42:00,60.0,56.0,30.07,ENE,71,0.0,0.0,86,0.00,,,0.00,,2013-03-11 05:42:00,
2013-03-11 01:52:00,59.0,55.0,30.07,ENE,71,0.0,0.0,87,0.00,,,0.00,,2013-03-11 05:52:00,
2013-03-11 02:02:00,59.0,55.0,30.06,ENE,71,0.0,0.0,87,0.00,,,0.00,,2013-03-11 06:02:00,
2013-03-11 02:12:00,59.0,55.0,30.06,ENE,71,0.0,0.0,87,0.00,,,0.00,,2013-03-11 06:12:00,
2013-03-11 02:22:00,58.0,54.0,30.06,ENE,71,0.0,0.0,88,0.00,,,0.00,,2013-03-11 06:22:00,
2013-03-11 02:32:00,57.0,54.0,30.06,ENE,71,0.0,0.0,89,0.00,,,0.00,,2013-03-11 06:32:00,
2013-03-11 02:42:00,57.0,54.0,30.06,ENE,71,0.0,0.0,89,0.00,,,0.00,,2013-03-11 06:42:00,
2013-03-11 02:52:00,57.0,54.0,30.06,ENE,71,0.0,0.0,89,0.00,,,0.00,,2013-03-11 06:52:00,
2013-03-11 03:03:00,56.0,53.0,30.05,ENE,71,0.0,0.0,90,0.00,,,0.00,,2013-03-11 07:03:00,
2013-03-11 03:12:00,56.0,53.0,30.04,ENE,71,0.0,0.0,90,0.00,,,0.00,,2013-03-11 07:12:00,
2013-03-11 03:22:00,56.0,53.0,30.04,ENE,71,0.0,0.0,90,0.00,,,0.00,,2013-03-11 07:22:00,
2013-03-11 03:32:00,55.0,52.0,30.03,ENE,71,0.0,0.0,91,0.00,,,0.00,,2013-03-11 07:32:00,
2013-03-11 03:42:00,55.0,52.0,30.03,ENE,71,0.0,0.0,91,0.00,,,0.00,,2013-03-11 07:42:00,
2013-03-11 03:52:00,55.0,52.0,30.03,ENE,71,0.0,0.0,91,0.00,,,0.00,,2013-03-11 07:52:00,
2013-03-11 04:02:00,54.0,51.0,30.03,ENE,71,0.0,0.0,91,0.00,,,0.00,,2013-03-11 08:02:00,
2013-03-11 04:12:00,54.0,51.0,30.03,ENE,71,0.0,0.0,91,0.00,,,0.00,,2013-03-11 08:12:00,
2013-03-11 04:22:00,54.0,52.0,30.02,ENE,71,0.0,0.0,92,0.00,,,0.00,,2013-03-11 08:22:00,
2013-03-11 04:32:00,54.0,52.0,30.01,ENE,71,0.0,0.0,92,0.00,,,0.00,,2013-03-11 08:32:00,
2013-03-11 04:42:00,54.0,52.0,30.01,ENE,71,0.0,0.0,92,0.00,,,0.00,,2013-03-11 08:42:00,
2013-03-11 04:52:00,54.0,52.0,30.01,ENE,71,0.0,0.0,92,0.00,,,0.00,,2013-03-11 08:52:00,
2013-03-11 05:02:00,54.0,52.0,30.01,ENE,71,0.0,0.0,93,0.00,,,0.00,,2013-03-11 09:02:00,
2013-03-11 05:12:00,54.0,52.0,30.01,ENE,71,0.0,0.0,93,0.00,,,0.00,,2013-03-11 09:12:00,
2013-03-11 05:23:00,54.0,52.0,30.00,ENE,71,0.0,0.0,93,0.00,,,0.00,,2013-03-11 09:23:00,
2013-03-11 05:32:00,54.0,52.0,30.00,ENE,71,0.0,0.0,93,0.00,,,0.00,,2013-03-11 09:32:00,
2013-03-11 05:42:00,54.0,52.0,30.00,ENE,71,0.0,0.0,93,0.00,,,0.00,,2013-03-11 09:42:00,
2013-03-11 05:52:00,53.0,51.0,29.99,ENE,71,0.0,0.0,93,0.00,,,0.00,,2013-03-11 09:52:00,
2013-03-11 06:02:00,53.0,51.0,29.99,ENE,71,0.0,0.0,93,0.00,,,0.00,,2013-03-11 10:02:00,
2013-03-11 06:12:00,53.0,51.0,29.99,ENE,71,0.0,0.0,93,0.00,,,0.00,,2013-03-11 10:12:00,
2013-03-11 06:22:00,53.0,51.0,29.99,ENE,71,0.0,0.0,93,0.00,,,0.00,,2013-03-11 10:22:00,
2013-03-11 06:32:00,54.0,52.0,29.99,ENE,71,0.0,0.0,94,0.00,,,0.00,,2013-03-11 10:32:00,
2013-03-11 06:42:00,54.0,52.0,29.99,ENE,71,0.0,0.0,94,0.00,,,0.00,,2013-03-11 10:42:00,
2013-03-11 06:52:00,54.0,52.0,29.99,ENE,71,0.0,0.0,94,0.00,,,0.00,,2013-03-11 10:52:00,
2013-03-11 07:02:00,54.0,52.0,29.99,ENE,71,0.0,0.0,94,0.00,,,0.00,,2013-03-11 11:02:00,
2013-03-11 07:12:00,54.0,52.0,29.99,ENE,71,0.0,0.0,94,0.00,,,0.00,,2013-03-11 11:12:00,
2013-03-11 07:22:00,53.0,51.0,30.00,ENE,71,0.0,0.0,94,0.00,,,0.00,,2013-03-11 11:22:00,
2013-03-11 07:32:00,53.0,51.0,30.00,ENE,71,0.0,0.0,94,0.00,,,0.00,,2013-03-11 11:32:00,
2013-03-11 07:42:00,53.0,51.0,30.00,ENE,71,0.0,0.0,94,0.00,,,0.00,,2013-03-11 11:42:00,
2013-03-11 07:53:00,53.0,51.0,30.00,ENE,71,0.0,0.0,94,0.00,,,0.00,,2013-03-11 11:53:00,
2013-03-11 08:33:00,54.0,52.0,30.01,ENE,71,0.0,0.0,94,0.00,,,0.00,,2013-03-11 12:33:00,
2013-03-11 08:43:00,54.0,52.0,30.01,ENE,71,0.0,0.0,94,0.00,,,0.00,,2013-03-11 12:43:00,
2013-03-11 08:53:00,55.0,54.0,30.02,ENE,71,0.0,0.0,95,0.00,,,0.00,,2013-03-11 12:53:00,
2013-03-11 09:03:00,56.0,55.0,30.02,ENE,71,0.0,0.0,95,0.00,,,0.00,,2013-03-11 13:03:00,
2013-03-11 09:12:00,56.0,55.0,30.02,ENE,71,0.0,0.0,95,0.00,,,0.00,,2013-03-11 13:12:00,
2013-03-11 09:22:00,58.0,57.0,30.02,ENE,71,0.0,0.0,95,0.00,,,0.00,,2013-03-11 13:22:00,
2013-03-11 09:32:00,62.0,61.0,30.02,ENE,71,0.0,1.0,96,0.00,,,0.00,,2013-03-11 13:32:00,
2013-03-11 09:42:00,62.0,61.0,30.02,ENE,71,0.0,1.0,96,0.00,,,0.00,,2013-03-11 13:42:00,
2013-03-11 09:52:00,66.0,62.0,30.02,SSE,159,1.0,5.0,88,0.00,,,0.00,,2013-03-11 13:52:00,
2013-03-11 10:02:00,68.0,63.0,30.03,NNE,12,1.0,6.0,83,0.00,,,0.00,,2013-03-11 14:02:00,
2013-03-11 10:12:00,68.0,63.0,30.03,NNE,12,1.0,6.0,83,0.00,,,0.00,,2013-03-11 14:12:00,
2013-03-11 10:22:00,71.0,64.0,30.02,SSW,203,1.0,3.0,78,0.00,,,0.00,,2013-03-11 14:22:00,
2013-03-11 10:33:00,72.0,63.0,30.02,ESE,117,5.0,8.0,73,0.00,,,0.00,,2013-03-11 14:33:00,
2013-03-11 10:42:00,72.0,63.0,30.02,ESE,117,5.0,8.0,73,0.00,,,0.00,,2013-03-11 14:42:00,
2013-03-11 10:53:00,74.0,63.0,30.03,SE,130,4.0,7.0,69,0.00,,,0.00,,2013-03-11 14:53:00,
2013-03-11 11:02:00,75.0,63.0,30.02,South,180,0.0,7.0,67,0.00,,,0.00,,2013-03-11 15:02:00,
2013-03-11 11:12:00,75.0,63.0,30.02,South,180,0.0,7.0,67,0.00,,,0.00,,2013-03-11 15:12:00,
2013-03-11 11:22:00,76.0,63.0,30.02,SSE,148,1.0,8.0,64,0.00,,,0.00,,2013-03-11 15:22:00,
2013-03-11 11:32:00,76.0,62.0,30.01,ESE,121,4.0,8.0,63,0.00,,,0.00,,2013-03-11 15:32:00,
2013-03-11 11:42:00,76.0,62.0,30.01,ESE,121,4.0,8.0,63,0.00,,,0.00,,2013-03-11 15:42:00,
2013-03-11 11:53:00,76.0,62.0,30.01,SE,130,4.0,8.0,61,0.00,,,0.00,,2013-03-11 15:53:00,
2013-03-11 12:02:00,77.0,63.0,30.01,SE,133,5.0,8.0,61,0.00,,,0.00,,2013-03-11 16:02:00,
2013-03-11 12:12:00,77.0,63.0,30.01,SE,133,5.0,8.0,61,0.00,,,0.00,,2013-03-11 16:12:00,
2013-03-11 12:22:00,77.0,62.0,30.01,SSE,153,0.0,10.0,59,0.00,,,0.00,,2013-03-11 16:22:00,
2013-03-11 12:32:00,78.0,62.0,30.00,SSW,200,3.0,12.0,57,0.00,,,0.00,,2013-03-11 16:32:00,
2013-03-11 12:43:00,78.0,62.0,30.00,SSW,200,3.0,12.0,57,0.00,,,0.00,,2013-03-11 16:43:00,
2013-03-11 12:52:00,78.0,62.0,30.00,SSW,200,3.0,12.0,57,0.00,,,0.00,,2013-03-11 16:52:00,
2013-03-11 13:02:00,80.0,62.0,30.00,ENE,69,0.0,6.0,55,0.00,,,0.00,,2013-03-11 17:02:00,
2013-03-11 13:15:00,80.0,62.0,30.00,ENE,69,0.0,6.0,55,0.00,,,0.00,,2013-03-11 17:15:00,
2013-03-11 13:28:00,80.0,61.0,30.00,ESE,109,0.0,11.0,53,0.00,,,0.00,,2013-03-11 17:28:00,
2013-03-11 13:37:00,79.0,61.0,30.00,WSW,240,0.0,11.0,54,0.00,,,0.00,,2013-03-11 17:37:00,
2013-03-11 13:42:00,79.0,61.0,30.00,WSW,240,0.0,11.0,54,0.00,,,0.00,,2013-03-11 17:42:00,
2013-03-11 13:53:00,80.0,61.0,30.00,SW,228,2.0,4.0,53,0.00,,,0.00,,2013-03-11 17:53:00,
2013-03-11 14:02:00,80.0,61.0,30.00,SW,228,2.0,4.0,53,0.00,,,0.00,,2013-03-11 18:02:00,
2013-03-11 14:12:00,80.0,61.0,30.00,SW,228,2.0,4.0,53,0.00,,,0.00,,2013-03-11 18:12:00,
2013-03-11 14:23:00,80.0,62.0,30.00,SW,235,0.0,3.0,54,0.00,,,0.00,,2013-03-11 18:23:00,
2013-03-11 14:32:00,80.0,62.0,30.00,WSW,251,0.0,4.0,55,0.00,,,0.00,,2013-03-11 18:32:00,
2013-03-11 14:43:00,80.0,62.0,30.00,WSW,251,0.0,4.0,55,0.00,,,0.00,,2013-03-11 18:43:00,
2013-03-11 14:53:00,81.0,63.0,29.99,SE,142,3.0,6.0,54,0.00,,,0.00,,2013-03-11 18:53:00,
2013-03-11 15:02:00,81.0,64.0,29.99,SE,128,6.0,7.0,56,0.00,,,0.00,,2013-03-11 19:02:00,
2013-03-11 15:12:00,81.0,64.0,29.99,SE,128,6.0,7.0,56,0.00,,,0.00,,2013-03-11 19:12:00,
2013-03-11 15:23:00,80.0,63.0,29.99,SW,236,2.0,9.0,57,0.00,,,0.00,,2013-03-11 19:23:00,
2013-03-11 15:33:00,80.0,63.0,29.98,South,185,3.0,8.0,57,0.00,,,0.00,,2013-03-11 19:33:00,
2013-03-11 15:42:00,80.0,63.0,29.98,South,185,3.0,8.0,57,0.00,,,0.00,,2013-03-11 19:42:00,
2013-03-11 15:52:00,82.0,64.0,29.97,East,99,1.0,3.0,54,0.00,,,0.00,,2013-03-11 19:52:00,
2013-03-11 16:02:00,81.0,62.0,29.97,ESE,105,3.0,7.0,53,0.00,,,0.00,,2013-03-11 20:02:00,
2013-03-11 16:12:00,81.0,62.0,29.97,ESE,105,3.0,7.0,53,0.00,,,0.00,,2013-03-11 20:12:00,
2013-03-11 16:22:00,82.0,63.0,29.96,SE,144,0.0,4.0,53,0.00,,,0.00,,2013-03-11 20:22:00,
2013-03-11 16:32:00,81.0,63.0,29.95,SSE,162,1.0,8.0,54,0.00,,,0.00,,2013-03-11 20:32:00,
2013-03-11 16:43:00,81.0,63.0,29.95,SSE,162,1.0,8.0,54,0.00,,,0.00,,2013-03-11 20:43:00,
2013-03-11 16:53:00,79.0,62.0,29.93,SW,236,2.0,6.0,57,0.00,,,0.00,,2013-03-11 20:53:00,
2013-03-11 17:03:00,80.0,62.0,29.93,SE,140,3.0,8.0,55,0.00,,,0.00,,2013-03-11 21:03:00,
2013-03-11 17:12:00,80.0,62.0,29.93,SE,140,3.0,8.0,55,0.00,,,0.00,,2013-03-11 21:12:00,
2013-03-11 17:22:00,80.0,62.0,29.92,SSW,209,3.0,7.0,54,0.00,,,0.00,,2013-03-11 21:22:00,
2013-03-11 17:32:00,79.0,61.0,29.92,ENE,72,3.0,8.0,54,0.00,,,0.00,,2013-03-11 21:32:00,
2013-03-11 17:44:00,79.0,61.0,29.92,ENE,72,3.0,8.0,54,0.00,,,0.00,,2013-03-11 21:44:00,
2013-03-11 17:53:00,79.0,61.0,29.92,SE,136,4.0,8.0,55,0.00,,,0.00,,2013-03-11 21:53:00,
2013-03-11 18:03:00,79.0,61.0,29.92,SE,136,4.0,8.0,55,0.00,,,0.00,,2013-03-11 22:03:00,
2013-03-11 18:12:00,79.0,61.0,29.92,SE,136,4.0,8.0,55,0.00,,,0.00,,2013-03-11 22:12:00,
2013-03-11 18:22:00,79.0,61.0,29.92,SE,131,1.0,5.0,55,0.00,,,0.00,,2013-03-11 22:22:00,
2013-03-11 18:32:00,78.0,62.0,29.92,SSW,196,0.0,7.0,57,0.00,,,0.00,,2013-03-11 22:32:00,
2013-03-11 18:43:00,78.0,62.0,29.92,SSW,196,0.0,7.0,57,0.00,,,0.00,,2013-03-11 22:43:00,
2013-03-11 18:53:00,77.0,61.0,29.93,SE,146,1.0,10.0,58,0.00,,,0.00,,2013-03-11 22:53:00,
2013-03-11 19:03:00,76.0,61.0,29.93,ESE,107,2.0,5.0,59,0.00,,,0.00,,2013-03-11 23:03:00,
2013-03-11 19:12:00,76.0,61.0,29.93,ESE,107,2.0,5.0,59,0.00,,,0.00,,2013-03-11 23:12:00,
2013-03-11 19:22:00,76.0,62.0,29.94,SW,221,2.0,3.0,62,0.00,,,0.00,,2013-03-11 23:22:00,
2013-03-11 19:32:00,75.0,62.0,29.94,WSW,244,0.0,3.0,64,0.00,,,0.00,,2013-03-11 23:32:00,
2013-03-11 19:43:00,75.0,62.0,29.94,WSW,244,0.0,3.0,64,0.00,,,0.00,,2013-03-11 23:43:00,
2013-03-11 19:53:00,75.0,63.0,29.95,WSW,245,2.0,6.0,66,0.00,,,0.00,,2013-03-11 23:53:00,
2013-03-11 20:02:00,74.0,63.0,29.95,South,180,0.0,1.0,69,0.00,,,0.00,,2013-03-12 00:02:00,
2013-03-11 20:12:00,74.0,63.0,29.95,South,180,0.0,1.0,69,0.00,,,0.00,,2013-03-12 00:12:00,
2013-03-11 20:23:00,72.0,63.0,29.95,SSW,195,0.0,1.0,73,0.00,,,0.00,,2013-03-12 00:23:00,
2013-03-11 20:33:00,72.0,63.0,29.95,SSW,195,0.0,1.0,74,0.00,,,0.00,,2013-03-12 00:33:00,
2013-03-11 20:42:00,72.0,63.0,29.95,SSW,195,0.0,1.0,74,0.00,,,0.00,,2013-03-12 00:42:00,
2013-03-11 20:54:00,71.0,63.0,29.95,South,185,0.0,2.0,76,0.00,,,0.00,,2013-03-12 00:54:00,
2013-03-11 21:02:00,70.0,62.0,29.94,South,185,0.0,2.0,77,0.00,,,0.00,,2013-03-12 01:02:00,
2013-03-11 21:12:00,70.0,62.0,29.94,South,185,0.0,2.0,77,0.00,,,0.00,,2013-03-12 01:12:00,
2013-03-11 21:22:00,70.0,63.0,29.94,South,185,0.0,1.0,79,0.00,,,0.00,,2013-03-12 01:22:00,
2013-03-11 21:33:00,69.0,63.0,29.94,ESE,115,0.0,4.0,80,0.00,,,0.00,,2013-03-12 01:33:00,
2013-03-11 21:42:00,69.0,63.0,29.94,ESE,115,0.0,4.0,80,0.00,,,0.00,,2013-03-12 01:42:00,
2013-03-11 21:53:00,69.0,63.0,29.95,ESE,115,0.0,4.0,81,0.00,,,0.00,,2013-03-12 01:53:00,
2013-03-11 22:02:00,68.0,63.0,29.95,ESE,115,0.0,1.0,83,0.00,,,0.00,,2013-03-12 02:02:00,
2013-03-11 22:12:00,68.0,63.0,29.95,ESE,115,0.0,1.0,83,0.00,,,0.00,,2013-03-12 02:12:00,
2013-03-11 22:22:00,67.0,62.0,29.96,ESE,115,0.0,0.0,84,0.00,,,0.00,,2013-03-12 02:22:00,
2013-03-11 22:32:00,67.0,62.0,29.96,ESE,115,0.0,0.0,85,0.00,,,0.00,,2013-03-12 02:32:00,
2013-03-11 22:42:00,67.0,62.0,29.96,ESE,115,0.0,0.0,85,0.00,,,0.00,,2013-03-12 02:42:00,
2013-03-11 22:52:00,66.0,62.0,29.96,East,96,0.0,0.0,87,0.00,,,0.00,,2013-03-12 02:52:00,
2013-03-11 23:02:00,66.0,62.0,29.96,East,96,0.0,1.0,87,0.00,,,0.00,,2013-03-12 03:02:00,
2013-03-11 23:12:00,66.0,62.0,29.96,East,96,0.0,1.0,87,0.00,,,0.00,,2013-03-12 03:12:00,
2013-03-11 23:22:00,66.0,62.0,29.96,SSW,202,0.0,2.0,88,0.00,,,0.00,,2013-03-12 03:22:00,
2013-03-11 23:32:00,66.0,62.0,29.95,SE,130,1.0,2.0,87,0.00,,,0.00,,2013-03-12 03:32:00,
2013-03-11 23:42:00,66.0,62.0,29.95,SE,130,1.0,2.0,87,0.00,,,0.00,,2013-03-12 03:42:00,
2013-03-11 23:53:00,66.0,62.0,29.96,SSE,148,0.0,1.0,87,0.00,,,0.00,,2013-03-12 03:53:00,